sensor_id;sensor_type;location;lat;lon;timestamp;pressure;altitude;pressure_sealevel;temperature;humidity
39197;BME280;42889;51.112;13.772;2023-02-02T00:01:30;98770.66;;;2.15;100.00
39197;BME280;42889;51.112;13.772;2023-02-02T00:03:57;98769.69;;;2.16;100.00
39197;BME280;42889;51.112;13.772;2023-02-02T00:06:26;98769.69;;;2.16;100.00
39197;BME280;42889;51.112;13.772;2023-02-02T00:08:55;98771.50;;;2.15;100.00
39197;BME280;42889;51.112;13.772;2023-02-02T00:11:23;98770.53;;;2.16;100.00
39197;BME280;42889;51.112;13.772;2023-02-02T00:13:50;98768.06;;;2.13;100.00
39197;BME280;42889;51.112;13.772;2023-02-02T00:18:53;98764.06;;;2.07;100.00
39197;BME280;42889;51.112;13.772;2023-02-02T00:21:22;98773.72;;;2.08;100.00
39197;BME280;42889;51.112;13.772;2023-02-02T00:23:49;98774.59;;;2.09;100.00
39197;BME280;42889;51.112;13.772;2023-02-02T00:26:17;98761.94;;;2.13;100.00
39197;BME280;42889;51.112;13.772;2023-02-02T00:28:43;98758.56;;;2.10;100.00
39197;BME280;42889;51.112;13.772;2023-02-02T00:31:10;98755.31;;;2.18;100.00
39197;BME280;42889;51.112;13.772;2023-02-02T00:33:37;98755.44;;;2.17;100.00
39197;BME280;42889;51.112;13.772;2023-02-02T00:36:04;98764.75;;;2.22;100.00
39197;BME280;42889;51.112;13.772;2023-02-02T00:38:31;98768.75;;;2.28;100.00
39197;BME280;42889;51.112;13.772;2023-02-02T00:40:57;98764.41;;;2.27;100.00
39197;BME280;42889;51.112;13.772;2023-02-02T00:43:24;98764.41;;;2.27;100.00
39197;BME280;42889;51.112;13.772;2023-02-02T00:45:51;98764.16;;;2.30;100.00
39197;BME280;42889;51.112;13.772;2023-02-02T00:48:17;98758.63;;;2.33;100.00
39197;BME280;42889;51.112;13.772;2023-02-02T00:50:44;98749.06;;;2.30;100.00
39197;BME280;42889;51.112;13.772;2023-02-02T00:53:11;98767.31;;;2.35;100.00
39197;BME280;42889;51.112;13.772;2023-02-02T00:55:38;98746.56;;;2.40;100.00
39197;BME280;42889;51.112;13.772;2023-02-02T00:58:06;98758.31;;;2.49;100.00
39197;BME280;42889;51.112;13.772;2023-02-02T01:00:33;98759.50;;;2.45;100.00
39197;BME280;42889;51.112;13.772;2023-02-02T01:03:38;98758.06;;;2.52;100.00
39197;BME280;42889;51.112;13.772;2023-02-02T01:06:04;98745.13;;;2.47;100.00
39197;BME280;42889;51.112;13.772;2023-02-02T01:08:31;98754.81;;;2.48;100.00
39197;BME280;42889;51.112;13.772;2023-02-02T01:10:58;98753.34;;;2.44;100.00
39197;BME280;42889;51.112;13.772;2023-02-02T01:13:25;98749.00;;;2.43;100.00
39197;BME280;42889;51.112;13.772;2023-02-02T01:15:56;98755.38;;;2.41;100.00
39197;BME280;42889;51.112;13.772;2023-02-02T01:18:26;98755.38;;;2.41;100.00
39197;BME280;42889;51.112;13.772;2023-02-02T01:21:00;98755.72;;;2.36;100.00
39197;BME280;42889;51.112;13.772;2023-02-02T01:23:27;98755.97;;;2.33;100.00
39197;BME280;42889;51.112;13.772;2023-02-02T01:25:55;98759.69;;;2.30;100.00
39197;BME280;42889;51.112;13.772;2023-02-02T01:28:22;98762.97;;;2.34;100.00
39197;BME280;42889;51.112;13.772;2023-02-02T01:30:50;98757.91;;;2.31;100.00
39197;BME280;42889;51.112;13.772;2023-02-02T01:33:19;98760.78;;;2.28;100.00
39197;BME280;42889;51.112;13.772;2023-02-02T01:35:53;98766.31;;;2.25;100.00
39197;BME280;42889;51.112;13.772;2023-02-02T01:38:22;98761.16;;;2.34;100.00
39197;BME280;42889;51.112;13.772;2023-02-02T01:40:52;98747.66;;;2.37;100.00
39197;BME280;42889;51.112;13.772;2023-02-02T01:48:40;98749.22;;;2.40;100.00
39197;BME280;42889;51.112;13.772;2023-02-02T01:51:13;98740.06;;;2.44;100.00
39197;BME280;42889;51.112;13.772;2023-02-02T01:53:42;98735.81;;;2.42;100.00
39197;BME280;42889;51.112;13.772;2023-02-02T01:56:13;98740.78;;;2.46;100.00
39197;BME280;42889;51.112;13.772;2023-02-02T01:58:43;98734.75;;;2.44;100.00
39197;BME280;42889;51.112;13.772;2023-02-02T02:01:10;98731.84;;;2.47;100.00
39197;BME280;42889;51.112;13.772;2023-02-02T02:03:39;98741.25;;;2.40;100.00
39197;BME280;42889;51.112;13.772;2023-02-02T02:06:10;98742.38;;;2.49;100.00
39197;BME280;42889;51.112;13.772;2023-02-02T02:08:46;98746.72;;;2.61;100.00
39197;BME280;42889;51.112;13.772;2023-02-02T02:11:15;98744.56;;;2.66;100.00
39197;BME280;42889;51.112;13.772;2023-02-02T02:13:41;98742.03;;;2.64;100.00
39197;BME280;42889;51.112;13.772;2023-02-02T02:23:17;98751.69;;;2.66;100.00
39197;BME280;42889;51.112;13.772;2023-02-02T02:26:19;98748.19;;;2.65;100.00
39197;BME280;42889;51.112;13.772;2023-02-02T02:32:14;98743.13;;;2.73;100.00
39197;BME280;42889;51.112;13.772;2023-02-02T02:35:00;98747.72;;;2.71;100.00
39197;BME280;42889;51.112;13.772;2023-02-02T02:40:33;98741.31;;;2.74;100.00
39197;BME280;42889;51.112;13.772;2023-02-02T02:43:12;98730.31;;;2.78;100.00
39197;BME280;42889;51.112;13.772;2023-02-02T02:45:42;98745.91;;;2.83;100.00
39197;BME280;42889;51.112;13.772;2023-02-02T02:48:12;98735.16;;;2.84;100.00
39197;BME280;42889;51.112;13.772;2023-02-02T02:50:38;98744.94;;;2.84;100.00
39197;BME280;42889;51.112;13.772;2023-02-02T02:53:10;98736.63;;;2.88;100.00
39197;BME280;42889;51.112;13.772;2023-02-02T02:56:02;98747.25;;;2.88;100.00
39197;BME280;42889;51.112;13.772;2023-02-02T03:01:33;98743.13;;;2.96;100.00
39197;BME280;42889;51.112;13.772;2023-02-02T03:04:09;98746.03;;;2.93;100.00
39197;BME280;42889;51.112;13.772;2023-02-02T03:07:09;98729.25;;;2.92;100.00
39197;BME280;42889;51.112;13.772;2023-02-02T03:09:40;98745.91;;;2.94;100.00
39197;BME280;42889;51.112;13.772;2023-02-02T03:12:09;98743.25;;;2.94;100.00
39197;BME280;42889;51.112;13.772;2023-02-02T03:14:36;98736.97;;;2.95;100.00
39197;BME280;42889;51.112;13.772;2023-02-02T03:17:04;98740.38;;;2.97;100.00
39197;BME280;42889;51.112;13.772;2023-02-02T03:19:31;98755.09;;;3.01;100.00
39197;BME280;42889;51.112;13.772;2023-02-02T03:21:58;98748.84;;;3.02;100.00
39197;BME280;42889;51.112;13.772;2023-02-02T03:24:24;98754.03;;;3.04;100.00
39197;BME280;42889;51.112;13.772;2023-02-02T03:26:51;98758.50;;;3.03;100.00
39197;BME280;42889;51.112;13.772;2023-02-02T03:29:18;98749.53;;;3.04;100.00
39197;BME280;42889;51.112;13.772;2023-02-02T03:31:46;98753.06;;;3.05;100.00
39197;BME280;42889;51.112;13.772;2023-02-02T03:34:12;98757.53;;;3.04;100.00
39197;BME280;42889;51.112;13.772;2023-02-02T03:36:39;98750.63;;;3.13;100.00
39197;BME280;42889;51.112;13.772;2023-02-02T03:39:06;98758.59;;;3.13;100.00
39197;BME280;42889;51.112;13.772;2023-02-02T03:41:32;98755.22;;;3.11;100.00
39197;BME280;42889;51.112;13.772;2023-02-02T03:43:59;98764.88;;;3.12;100.00
39197;BME280;42889;51.112;13.772;2023-02-02T03:46:25;98755.09;;;3.12;100.00
39197;BME280;42889;51.112;13.772;2023-02-02T03:48:53;98760.31;;;3.14;100.00
39197;BME280;42889;51.112;13.772;2023-02-02T03:51:19;98758.84;;;3.10;100.00
39197;BME280;42889;51.112;13.772;2023-02-02T03:53:46;98757.88;;;3.11;100.00
39197;BME280;42889;51.112;13.772;2023-02-02T03:56:14;98751.84;;;3.09;100.00
39197;BME280;42889;51.112;13.772;2023-02-02T03:58:41;98780.25;;;3.08;100.00
39197;BME280;42889;51.112;13.772;2023-02-02T04:01:11;98774.94;;;3.08;100.00
39197;BME280;42889;51.112;13.772;2023-02-02T04:03:37;98765.84;;;3.11;100.00
39197;BME280;42889;51.112;13.772;2023-02-02T04:06:04;98776.34;;;3.12;100.00
39197;BME280;42889;51.112;13.772;2023-02-02T04:08:31;98781.94;;;3.09;100.00
39197;BME280;42889;51.112;13.772;2023-02-02T04:10:59;98785.56;;;3.08;100.00
39197;BME280;42889;51.112;13.772;2023-02-02T04:13:26;98780.00;;;3.11;100.00
39197;BME280;42889;51.112;13.772;2023-02-02T04:16:00;98792.31;;;3.12;100.00
39197;BME280;42889;51.112;13.772;2023-02-02T04:18:27;98795.94;;;3.11;100.00
39197;BME280;42889;51.112;13.772;2023-02-02T04:20:59;98798.00;;;3.08;100.00
39197;BME280;42889;51.112;13.772;2023-02-02T04:23:26;98800.53;;;3.09;100.00
39197;BME280;42889;51.112;13.772;2023-02-02T04:25:53;98797.03;;;3.09;100.00
39197;BME280;42889;51.112;13.772;2023-02-02T04:28:20;98805.25;;;3.06;100.00
39197;BME280;42889;51.112;13.772;2023-02-02T04:30:49;98805.13;;;3.07;100.00
39197;BME280;42889;51.112;13.772;2023-02-02T04:33:16;98809.50;;;3.08;100.00
39197;BME280;42889;51.112;13.772;2023-02-02T04:35:44;98814.81;;;3.08;100.00
39197;BME280;42889;51.112;13.772;2023-02-02T04:38:12;98802.59;;;3.06;100.00
39197;BME280;42889;51.112;13.772;2023-02-02T04:40:40;98800.78;;;3.06;100.00
39197;BME280;42889;51.112;13.772;2023-02-02T04:43:08;98804.41;;;3.05;100.00
39197;BME280;42889;51.112;13.772;2023-02-02T04:45:35;98796.28;;;3.07;100.00
39197;BME280;42889;51.112;13.772;2023-02-02T04:48:03;98818.66;;;3.04;100.00
39197;BME280;42889;51.112;13.772;2023-02-02T04:50:30;98815.38;;;3.01;100.00
39197;BME280;42889;51.112;13.772;2023-02-02T04:52:57;98816.34;;;3.00;100.00
39197;BME280;42889;51.112;13.772;2023-02-02T04:55:23;98815.28;;;3.02;100.00
39197;BME280;42889;51.112;13.772;2023-02-02T04:57:50;98821.94;;;3.08;100.00
39197;BME280;42889;51.112;13.772;2023-02-02T05:00:17;98826.28;;;3.09;100.00
39197;BME280;42889;51.112;13.772;2023-02-02T05:02:44;98834.97;;;3.11;100.00
39197;BME280;42889;51.112;13.772;2023-02-02T05:05:12;98834.13;;;3.10;100.00
39197;BME280;42889;51.112;13.772;2023-02-02T05:07:39;98827.13;;;3.09;100.00
39197;BME280;42889;51.112;13.772;2023-02-02T05:10:07;98843.78;;;3.11;100.00
39197;BME280;42889;51.112;13.772;2023-02-02T05:12:34;98834.00;;;3.12;100.00
39197;BME280;42889;51.112;13.772;2023-02-02T05:15:01;98845.00;;;3.07;100.00
39197;BME280;42889;51.112;13.772;2023-02-02T05:17:30;98836.44;;;3.04;100.00
39197;BME280;42889;51.112;13.772;2023-02-02T05:19:57;98851.28;;;3.06;100.00
39197;BME280;42889;51.112;13.772;2023-02-02T05:22:24;98857.44;;;3.07;100.00
39197;BME280;42889;51.112;13.772;2023-02-02T05:24:51;98846.72;;;3.08;100.00
39197;BME280;42889;51.112;13.772;2023-02-02T05:27:17;98859.38;;;3.05;100.00
39197;BME280;42889;51.112;13.772;2023-02-02T05:29:45;98867.34;;;3.05;100.00
39197;BME280;42889;51.112;13.772;2023-02-02T05:32:12;98861.69;;;3.09;100.00
39197;BME280;42889;51.112;13.772;2023-02-02T05:34:39;98860.72;;;3.10;100.00
39197;BME280;42889;51.112;13.772;2023-02-02T05:37:05;98873.88;;;3.12;100.00
39197;BME280;42889;51.112;13.772;2023-02-02T05:39:32;98883.69;;;3.11;100.00
39197;BME280;42889;51.112;13.772;2023-02-02T05:41:59;98879.09;;;3.13;100.00
39197;BME280;42889;51.112;13.772;2023-02-02T05:44:25;98873.53;;;3.16;100.00
39197;BME280;42889;51.112;13.772;2023-02-02T05:46:52;98887.09;;;3.13;100.00
39197;BME280;42889;51.112;13.772;2023-02-02T05:49:19;98878.97;;;3.15;100.00
39197;BME280;42889;51.112;13.772;2023-02-02T05:51:47;98888.50;;;3.17;100.00
39197;BME280;42889;51.112;13.772;2023-02-02T05:54:15;98893.00;;;3.17;100.00
39197;BME280;42889;51.112;13.772;2023-02-02T05:56:47;98902.06;;;3.14;100.00
39197;BME280;42889;51.112;13.772;2023-02-02T05:59:14;98904.09;;;3.11;100.00
39197;BME280;42889;51.112;13.772;2023-02-02T06:01:40;98909.78;;;3.17;100.00
39197;BME280;42889;51.112;13.772;2023-02-02T06:04:07;98913.41;;;3.16;100.00
39197;BME280;42889;51.112;13.772;2023-02-02T06:06:34;98894.44;;;3.10;100.00
39197;BME280;42889;51.112;13.772;2023-02-02T06:09:04;98912.41;;;3.06;100.00
39197;BME280;42889;51.112;13.772;2023-02-02T06:11:31;98918.13;;;3.13;100.00
39197;BME280;42889;51.112;13.772;2023-02-02T06:13:58;98918.72;;;3.05;100.00
39197;BME280;42889;51.112;13.772;2023-02-02T06:16:25;98923.16;;;2.94;100.00
39197;BME280;42889;51.112;13.772;2023-02-02T06:18:52;98939.56;;;2.87;100.00
39197;BME280;42889;51.112;13.772;2023-02-02T06:21:19;98938.34;;;2.80;100.00
39197;BME280;42889;51.112;13.772;2023-02-02T06:23:48;98943.03;;;2.77;100.00
39197;BME280;42889;51.112;13.772;2023-02-02T06:26:16;98943.81;;;2.66;100.00
39197;BME280;42889;51.112;13.772;2023-02-02T06:28:48;98949.34;;;2.63;100.00
39197;BME280;42889;51.112;13.772;2023-02-02T06:31:15;98944.78;;;2.65;100.00
39197;BME280;42889;51.112;13.772;2023-02-02T06:33:52;98954.44;;;2.66;100.00
39197;BME280;42889;51.112;13.772;2023-02-02T06:36:20;98952.97;;;2.62;100.00
39197;BME280;42889;51.112;13.772;2023-02-02T06:38:48;98953.94;;;2.61;100.00
39197;BME280;42889;51.112;13.772;2023-02-02T06:41:16;98955.41;;;2.65;100.00
39197;BME280;42889;51.112;13.772;2023-02-02T06:43:42;98963.47;;;2.63;100.00
39197;BME280;42889;51.112;13.772;2023-02-02T06:46:09;98974.84;;;2.66;100.00
39197;BME280;42889;51.112;13.772;2023-02-02T06:48:36;98965.19;;;2.64;100.00
39197;BME280;42889;51.112;13.772;2023-02-02T06:51:03;98967.09;;;2.62;100.00
39197;BME280;42889;51.112;13.772;2023-02-02T06:53:31;98980.16;;;2.66;100.00
39197;BME280;42889;51.112;13.772;2023-02-02T06:56:03;98966.56;;;2.70;100.00
39197;BME280;42889;51.112;13.772;2023-02-02T06:58:31;98969.53;;;2.66;100.00
39197;BME280;42889;51.112;13.772;2023-02-02T07:01:09;98987.34;;;2.76;100.00
39197;BME280;42889;51.112;13.772;2023-02-02T07:03:36;98971.53;;;2.75;100.00
39197;BME280;42889;51.112;13.772;2023-02-02T07:06:16;98984.06;;;2.73;100.00
39197;BME280;42889;51.112;13.772;2023-02-02T07:08:43;98986.03;;;2.82;100.00
39197;BME280;42889;51.112;13.772;2023-02-02T07:11:14;98981.47;;;2.84;100.00
39197;BME280;42889;51.112;13.772;2023-02-02T07:13:46;98985.94;;;2.83;100.00
39197;BME280;42889;51.112;13.772;2023-02-02T07:16:15;98988.47;;;2.85;100.00
39197;BME280;42889;51.112;13.772;2023-02-02T07:18:43;98995.25;;;2.89;100.00
39197;BME280;42889;51.112;13.772;2023-02-02T07:21:21;98984.88;;;2.86;100.00
39197;BME280;42889;51.112;13.772;2023-02-02T07:23:48;98988.88;;;2.92;100.00
39197;BME280;42889;51.112;13.772;2023-02-02T07:26:17;98995.13;;;2.90;100.00
39197;BME280;42889;51.112;13.772;2023-02-02T07:28:44;98996.47;;;2.96;100.00
39197;BME280;42889;51.112;13.772;2023-02-02T07:31:17;99003.72;;;2.94;100.00
39197;BME280;42889;51.112;13.772;2023-02-02T07:33:45;99013.66;;;2.92;100.00
39197;BME280;42889;51.112;13.772;2023-02-02T07:36:15;99017.53;;;2.99;100.00
39197;BME280;42889;51.112;13.772;2023-02-02T07:38:43;99020.88;;;2.90;100.00
39197;BME280;42889;51.112;13.772;2023-02-02T07:41:10;99018.53;;;2.85;100.00
39197;BME280;42889;51.112;13.772;2023-02-02T07:43:37;99014.66;;;2.78;100.00
39197;BME280;42889;51.112;13.772;2023-02-02T07:46:06;99022.00;;;2.75;100.00
39197;BME280;42889;51.112;13.772;2023-02-02T07:48:35;99028.50;;;2.71;100.00
39197;BME280;42889;51.112;13.772;2023-02-02T07:51:05;99031.75;;;2.74;100.00
39197;BME280;42889;51.112;13.772;2023-02-02T07:53:33;99031.56;;;2.77;100.00
39197;BME280;42889;51.112;13.772;2023-02-02T07:56:19;99036.75;;;2.79;100.00
39197;BME280;42889;51.112;13.772;2023-02-02T07:58:47;99041.00;;;2.81;100.00
39197;BME280;42889;51.112;13.772;2023-02-02T08:01:14;99042.38;;;2.87;100.00
39197;BME280;42889;51.112;13.772;2023-02-02T08:03:42;99037.09;;;2.98;100.00
39197;BME280;42889;51.112;13.772;2023-02-02T08:06:19;99053.22;;;3.08;100.00
39197;BME280;42889;51.112;13.772;2023-02-02T08:08:47;99045.53;;;3.16;100.00
39197;BME280;42889;51.112;13.772;2023-02-02T08:11:17;99043.59;;;3.18;100.00
39197;BME280;42889;51.112;13.772;2023-02-02T08:13:46;99042.84;;;3.16;100.00
39197;BME280;42889;51.112;13.772;2023-02-02T08:16:13;99057.84;;;3.17;100.00
39197;BME280;42889;51.112;13.772;2023-02-02T08:18:40;99052.53;;;3.17;100.00
39197;BME280;42889;51.112;13.772;2023-02-02T08:21:09;99063.78;;;3.21;100.00
39197;BME280;42889;51.112;13.772;2023-02-02T08:23:37;99063.47;;;3.25;100.00
39197;BME280;42889;51.112;13.772;2023-02-02T08:26:16;99069.50;;;3.27;100.00
39197;BME280;42889;51.112;13.772;2023-02-02T08:28:48;99073.00;;;3.28;100.00
39197;BME280;42889;51.112;13.772;2023-02-02T08:31:17;99072.03;;;3.29;100.00
39197;BME280;42889;51.112;13.772;2023-02-02T08:33:44;99084.41;;;3.30;100.00
39197;BME280;42889;51.112;13.772;2023-02-02T08:36:15;99071.81;;;3.32;100.00
39197;BME280;42889;51.112;13.772;2023-02-02T08:38:43;99078.94;;;3.31;100.00
39197;BME280;42889;51.112;13.772;2023-02-02T08:41:12;99076.88;;;3.35;100.00
39197;BME280;42889;51.112;13.772;2023-02-02T08:43:41;99082.22;;;3.35;100.00
39197;BME280;42889;51.112;13.772;2023-02-02T08:46:10;99084.53;;;3.39;100.00
39197;BME280;42889;51.112;13.772;2023-02-02T08:48:37;99088.03;;;3.40;100.00
39197;BME280;42889;51.112;13.772;2023-02-02T08:51:05;99084.91;;;3.46;100.00
39197;BME280;42889;51.112;13.772;2023-02-02T08:53:32;99087.56;;;3.46;100.00
39197;BME280;42889;51.112;13.772;2023-02-02T08:56:08;99094.72;;;3.46;100.00
39197;BME280;42889;51.112;13.772;2023-02-02T08:58:35;99103.53;;;3.46;100.00
39197;BME280;42889;51.112;13.772;2023-02-02T09:01:26;99103.31;;;3.49;100.00
39197;BME280;42889;51.112;13.772;2023-02-02T09:03:55;99102.81;;;3.44;100.00
39197;BME280;42889;51.112;13.772;2023-02-02T09:06:27;99107.50;;;3.40;100.00
39197;BME280;42889;51.112;13.772;2023-02-02T09:08:54;99108.59;;;3.38;100.00
39197;BME280;42889;51.112;13.772;2023-02-02T09:11:21;99111.47;;;3.35;100.00
39197;BME280;42889;51.112;13.772;2023-02-02T09:13:51;99120.19;;;3.37;100.00
39197;BME280;42889;51.112;13.772;2023-02-02T09:16:18;99129.16;;;3.36;100.00
39197;BME280;42889;51.112;13.772;2023-02-02T09:18:45;99131.81;;;3.36;100.00
39197;BME280;42889;51.112;13.772;2023-02-02T09:21:15;99125.13;;;3.30;100.00
39197;BME280;42889;51.112;13.772;2023-02-02T09:23:43;99133.19;;;3.29;100.00
39197;BME280;42889;51.112;13.772;2023-02-02T09:26:16;99137.47;;;3.31;100.00
39197;BME280;42889;51.112;13.772;2023-02-02T09:28:46;99137.22;;;3.34;100.00
39197;BME280;42889;51.112;13.772;2023-02-02T09:31:13;99144.59;;;3.31;100.00
39197;BME280;42889;51.112;13.772;2023-02-02T09:33:41;99143.63;;;3.32;100.00
39197;BME280;42889;51.112;13.772;2023-02-02T09:36:09;99138.94;;;3.35;100.00
39197;BME280;42889;51.112;13.772;2023-02-02T09:38:37;99138.66;;;3.27;100.00
39197;BME280;42889;51.112;13.772;2023-02-02T09:42:10;99147.72;;;3.25;100.00
39197;BME280;42889;51.112;13.772;2023-02-02T09:55:21;99177.56;;;3.28;100.00
39197;BME280;42889;51.112;13.772;2023-02-02T09:58:17;99182.81;;;3.30;100.00
39197;BME280;42889;51.112;13.772;2023-02-02T10:01:10;99189.47;;;3.35;100.00
39197;BME280;42889;51.112;13.772;2023-02-02T10:03:59;99186.47;;;3.40;100.00
39197;BME280;42889;51.112;13.772;2023-02-02T10:06:35;99188.19;;;3.41;100.00
39197;BME280;42889;51.112;13.772;2023-02-02T10:23:04;99181.03;;;3.65;100.00
39197;BME280;42889;51.112;13.772;2023-02-02T10:25:35;99173.78;;;3.67;100.00
39197;BME280;42889;51.112;13.772;2023-02-02T10:28:16;99185.06;;;3.71;100.00
39197;BME280;42889;51.112;13.772;2023-02-02T10:30:46;99179.72;;;3.71;100.00
39197;BME280;42889;51.112;13.772;2023-02-02T10:33:37;99179.56;;;3.61;100.00
39197;BME280;42889;51.112;13.772;2023-02-02T10:36:16;99194.28;;;3.54;100.00
39197;BME280;42889;51.112;13.772;2023-02-02T10:39:03;99196.75;;;3.44;100.00
39197;BME280;42889;51.112;13.772;2023-02-02T10:42:10;99198.31;;;3.36;100.00
39197;BME280;42889;51.112;13.772;2023-02-02T10:44:55;99193.66;;;3.27;100.00
39197;BME280;42889;51.112;13.772;2023-02-02T10:47:28;99198.63;;;3.31;100.00
39197;BME280;42889;51.112;13.772;2023-02-02T10:52:40;99203.50;;;3.37;100.00
39197;BME280;42889;51.112;13.772;2023-02-02T10:55:49;99205.56;;;3.21;100.00
39197;BME280;42889;51.112;13.772;2023-02-02T11:00:54;99208.38;;;3.07;100.00
39197;BME280;42889;51.112;13.772;2023-02-02T11:03:23;99210.63;;;3.00;100.00
39197;BME280;42889;51.112;13.772;2023-02-02T11:05:51;99227.84;;;2.95;100.00
39197;BME280;42889;51.112;13.772;2023-02-02T11:08:53;99220.97;;;2.79;100.00
39197;BME280;42889;51.112;13.772;2023-02-02T11:11:28;99218.84;;;2.84;100.00
39197;BME280;42889;51.112;13.772;2023-02-02T11:14:03;99212.34;;;2.88;100.00
39197;BME280;42889;51.112;13.772;2023-02-02T11:16:38;99209.97;;;2.97;100.00
39197;BME280;42889;51.112;13.772;2023-02-02T11:21:56;99206.03;;;3.15;100.00
39197;BME280;42889;51.112;13.772;2023-02-02T11:24:37;99211.88;;;3.20;100.00
39197;BME280;42889;51.112;13.772;2023-02-02T11:37:30;99220.19;;;3.39;100.00
39197;BME280;42889;51.112;13.772;2023-02-02T11:42:45;99222.53;;;3.44;100.00
39197;BME280;42889;51.112;13.772;2023-02-02T11:45:15;99227.00;;;3.43;100.00
39197;BME280;42889;51.112;13.772;2023-02-02T11:47:44;99226.88;;;3.45;100.00
39197;BME280;42889;51.112;13.772;2023-02-02T11:50:25;99232.84;;;3.49;100.00
39197;BME280;42889;51.112;13.772;2023-02-02T11:52:53;99229.84;;;3.53;100.00
39197;BME280;42889;51.112;13.772;2023-02-02T11:55:26;99228.53;;;3.59;100.00
39197;BME280;42889;51.112;13.772;2023-02-02T11:58:31;99216.25;;;3.69;100.00
39197;BME280;42889;51.112;13.772;2023-02-02T12:01:21;99225.31;;;3.66;100.00
39197;BME280;42889;51.112;13.772;2023-02-02T12:03:49;99232.84;;;3.73;100.00
39197;BME280;42889;51.112;13.772;2023-02-02T12:06:25;99231.31;;;3.81;100.00
39197;BME280;42889;51.112;13.772;2023-02-02T12:08:58;99239.50;;;3.78;100.00
39197;BME280;42889;51.112;13.772;2023-02-02T12:14:48;99239.97;;;3.96;100.00
39197;BME280;42889;51.112;13.772;2023-02-02T12:17:45;99244.34;;;3.97;100.00
39197;BME280;42889;51.112;13.772;2023-02-02T12:23:23;99239.56;;;3.89;100.00
39197;BME280;42889;51.112;13.772;2023-02-02T12:26:31;99244.94;;;4.01;100.00
39197;BME280;42889;51.112;13.772;2023-02-02T12:29:24;99243.28;;;4.11;100.00
39197;BME280;42889;51.112;13.772;2023-02-02T12:32:10;99255.53;;;4.13;100.00
39197;BME280;42889;51.112;13.772;2023-02-02T12:35:00;99241.25;;;4.14;100.00
39197;BME280;42889;51.112;13.772;2023-02-02T12:40:19;99244.03;;;4.13;100.00
39197;BME280;42889;51.112;13.772;2023-02-02T12:51:28;99253.31;;;4.42;100.00
39197;BME280;42889;51.112;13.772;2023-02-02T12:57:01;99260.09;;;4.35;100.00
39197;BME280;42889;51.112;13.772;2023-02-02T13:00:08;99258.78;;;4.41;100.00
39197;BME280;42889;51.112;13.772;2023-02-02T13:09:01;99266.56;;;4.66;100.00
39197;BME280;42889;51.112;13.772;2023-02-02T13:11:52;99263.06;;;4.66;100.00
39197;BME280;42889;51.112;13.772;2023-02-02T13:14:40;99261.09;;;4.45;100.00
39197;BME280;42889;51.112;13.772;2023-02-02T13:20:35;99270.41;;;4.40;100.00
39197;BME280;42889;51.112;13.772;2023-02-02T13:23:10;99280.44;;;4.36;100.00
39197;BME280;42889;51.112;13.772;2023-02-02T13:25:46;99278.50;;;4.38;100.00
39197;BME280;42889;51.112;13.772;2023-02-02T13:31:21;99286.09;;;4.32;100.00
39197;BME280;42889;51.112;13.772;2023-02-02T13:34:03;99286.34;;;4.29;100.00
39197;BME280;42889;51.112;13.772;2023-02-02T13:36:31;99290.72;;;4.30;100.00
39197;BME280;42889;51.112;13.772;2023-02-02T13:39:14;99294.22;;;4.30;100.00
39197;BME280;42889;51.112;13.772;2023-02-02T13:41:43;99295.69;;;4.34;100.00
39197;BME280;42889;51.112;13.772;2023-02-02T13:44:28;99296.59;;;4.22;100.00
39197;BME280;42889;51.112;13.772;2023-02-02T13:49:37;99315.50;;;4.19;100.00
39197;BME280;42889;51.112;13.772;2023-02-02T14:00:20;99328.41;;;4.12;100.00
39197;BME280;42889;51.112;13.772;2023-02-02T14:02:54;99338.81;;;4.15;100.00
39197;BME280;42889;51.112;13.772;2023-02-02T14:05:33;99344.41;;;4.12;100.00
39197;BME280;42889;51.112;13.772;2023-02-02T14:08:20;99352.16;;;4.15;100.00
39197;BME280;42889;51.112;13.772;2023-02-02T14:13:24;99364.75;;;4.13;100.00
39197;BME280;42889;51.112;13.772;2023-02-02T14:18:59;99360.25;;;4.14;100.00
39197;BME280;42889;51.112;13.772;2023-02-02T14:24:03;99370.84;;;4.27;100.00
39197;BME280;42889;51.112;13.772;2023-02-02T14:26:55;99373.00;;;4.21;100.00
39197;BME280;42889;51.112;13.772;2023-02-02T14:32:00;99374.38;;;4.27;100.00
39197;BME280;42889;51.112;13.772;2023-02-02T14:34:37;99378.31;;;4.21;100.00
39197;BME280;42889;51.112;13.772;2023-02-02T14:53:25;99414.00;;;4.32;100.00
39197;BME280;42889;51.112;13.772;2023-02-02T14:56:09;99420.63;;;4.26;100.00
39197;BME280;42889;51.112;13.772;2023-02-02T14:58:51;99427.91;;;4.11;100.00
39197;BME280;42889;51.112;13.772;2023-02-02T15:06:41;99430.31;;;3.90;100.00
39197;BME280;42889;51.112;13.772;2023-02-02T15:17:22;99441.25;;;3.99;100.00
39197;BME280;42889;51.112;13.772;2023-02-02T15:25:23;99458.41;;;4.07;100.00
39197;BME280;42889;51.112;13.772;2023-02-02T15:28:06;99454.13;;;4.05;100.00
39197;BME280;42889;51.112;13.772;2023-02-02T15:30:36;99469.91;;;4.08;100.00
39197;BME280;42889;51.112;13.772;2023-02-02T15:33:19;99486.94;;;4.05;100.00
39197;BME280;42889;51.112;13.772;2023-02-02T15:35:47;99493.34;;;4.03;100.00
39197;BME280;42889;51.112;13.772;2023-02-02T15:38:16;99502.19;;;4.03;100.00
39197;BME280;42889;51.112;13.772;2023-02-02T15:40:46;99516.03;;;3.83;100.00
39197;BME280;42889;51.112;13.772;2023-02-02T15:43:14;99525.59;;;3.73;100.00
39197;BME280;42889;51.112;13.772;2023-02-02T15:45:54;99518.25;;;3.51;100.00
39197;BME280;42889;51.112;13.772;2023-02-02T15:48:29;99529.44;;;3.43;100.00
39197;BME280;42889;51.112;13.772;2023-02-02T15:50:59;99529.44;;;3.43;100.00
39197;BME280;42889;51.112;13.772;2023-02-02T15:53:30;99535.06;;;3.38;100.00
39197;BME280;42889;51.112;13.772;2023-02-02T15:55:58;99534.31;;;3.36;100.00